Latest Weather Observations for Albury

IDV60801

Issued at 6:35 am EDT Tuesday 25 November 2014 (issued every 30 minutes, with the page automatically refreshed every 10 minutes)

About weather observations | Map of weather stations | Latest weather observations for VIC | Other Formats
Station Details ID: 072160 Name: ALBURY AIRPORT AWS Lat: -36.07 Lon: 146.95 Height: 163.5 m
Data from the previous 72 hours. | See also: Recent months at Albury
Date/Time
EDT
Temp
°C
App
Temp
°C
Dew
Point
Rel
Hum
%
Delta-T
°C
Wind Press
QNH
hPa
Press
MSL
hPa
Rain
since 9 am
mm
Dir
 
Spd
km/h
Gust
km/h
Spd
kts
Gust
kts
25/06:30am 11.1 7.7 5.8 70 2.5 W 13 19 7 10 1016.6 1016.1 27.0
25/06:00am 10.2 6.5 6.4 77 1.8 W 15 19 8 10 1016.3 1015.8 27.0
25/05:30am 10.7 6.7 6.5 75 2.0 W 17 22 9 12 1015.6 1015.2 27.0
25/05:00am 11.1 6.5 6.3 72 2.3 W 20 28 11 15 1015.0 1014.6 27.0
25/04:30am 11.4 6.3 6.1 70 2.5 W 22 32 12 17 1014.4 1014.0 27.0
25/04:00am 12.1 6.8 6.8 70 2.6 W 24 35 13 19 1013.8 1013.4 27.0
25/03:30am 12.6 7.6 7.9 73 2.3 W 24 33 13 18 1013.3 1012.9 27.0
25/03:00am 12.7 9.3 9.2 79 1.8 W 17 22 9 12 1013.3 1012.9 27.0
25/02:30am 13.3 10.2 10.3 82 1.6 W 17 26 9 14 1013.0 1012.6 27.0
25/02:00am 14.2 10.6 10.6 79 1.9 W 20 32 11 17 1012.8 1012.4 27.0
25/01:30am 15.0 13.0 12.7 86 1.3 W 15 20 8 11 1012.5 1012.1 27.0
25/01:00am 15.7 12.5 13.0 84 1.5 W 22 30 12 16 1012.3 1011.9 27.0
25/12:30am 16.3 12.9 13.6 84 1.5 W 24 33 13 18 1011.9 1011.5 27.0
25/12:00am 17.0 14.6 14.3 84 1.6 WNW 20 30 11 16 1011.5 1011.0 27.0
 
Date/Time
EDT
Temp
°C
App
Temp
°C
Dew
Point
Rel
Hum
%
Delta-T
°C
Wind Press
QNH
hPa
Press
MSL
hPa
Rain
since 9 am
mm
Dir
 
Spd
km/h
Gust
km/h
Spd
kts
Gust
kts
24/11:30pm 17.6 16.7 15.8 89 1.1 W 15 20 8 11 1010.7 1010.2 27.0
24/11:10pm 18.0 18.0 17.2 95 0.5 W 13 17 7 9 1010.4 1009.9 27.0
24/11:00pm 18.1 17.8 17.3 95 0.5 W 15 26 8 14 1010.3 1009.8 27.0
24/10:58pm 18.2 17.5 17.4 95 0.5 W 17 26 9 14 1010.2 1009.7 27.0
24/10:43pm 18.3 18.3 18.0 98 0.2 W 15 20 8 11 1010.1 1009.6 26.8
24/10:30pm 18.3 18.6 18.0 98 0.2 W 13 17 7 9 1009.9 1009.4 26.2
24/10:00pm 18.4 21.3 18.2 99 0.1 CALM 0 6 0 3 1009.5 1009.0 26.0
24/09:37pm 18.3 19.8 18.1 99 0.1 N 7 13 4 7 1008.8 1008.4 26.0
24/09:30pm 18.2 18.9 18.0 99 0.1 NNE 11 15 6 8 1008.4 1008.0 26.0
24/09:00pm 17.8 18.1 17.8 100 0.0 NE 13 19 7 10 1008.3 1007.9 26.0
24/08:30pm 17.8 19.7 17.6 99 0.1 E 4 13 2 7 1009.4 1008.9 24.6
24/08:10pm 17.8 16.8 17.6 99 0.1 WNW 19 24 10 13 1010.7 1010.2 21.2
24/08:00pm 17.5 18.3 17.3 99 0.1 S 9 15 5 8 1008.6 1008.2 20.0
24/07:53pm 17.5 18.3 17.3 99 0.1 SSE 9 13 5 7 1008.5 1008.1 19.8
24/07:30pm 17.3 17.2 17.0 98 0.2 SSE 13 17 7 9 1008.1 1007.7 19.2
24/07:00pm 17.9 18.2 16.9 94 0.6 S 11 20 6 11 1008.3 1007.9 16.6
24/06:31pm 18.7 16.3 16.5 87 1.3 NW 24 35 13 19 1007.9 1007.5 15.0
24/06:30pm 18.8 16.5 16.6 87 1.3 NW 24 35 13 19 1007.8 1007.4 15.0
24/06:00pm 17.6 14.5 16.6 94 0.6 W 28 44 15 24 1008.2 1007.8 11.2
24/05:42pm 18.5 11.3 15.7 84 1.7 WSW 48 69 26 37 1008.9 1008.5 4.0
24/05:39pm 22.4 18.1 15.3 64 4.3 WSW 32 65 17 35 1008.7 1008.3 2.4
24/05:30pm 24.6 25.7 18.1 67 4.1 NNE 9 13 5 7 1007.5 1007.1 2.4
24/05:00pm 24.8 25.4 18.7 69 3.9 ENE 13 19 7 10 1007.1 1006.7 2.4
24/04:30pm 24.2 23.8 19.3 74 3.2 NE 20 26 11 14 1006.9 1006.5 2.4
24/04:00pm 23.8 23.6 18.4 72 3.4 NE 17 22 9 12 1008.1 1007.7 2.4
24/03:45pm 23.6 23.7 19.1 76 2.9 NE 17 22 9 12 1008.3 1007.9 2.4
24/03:30pm 23.2 22.6 18.5 75 3.0 ENE 19 22 10 12 1008.7 1008.3 2.4
24/03:00pm 22.3 22.3 18.9 81 2.2 NE 17 22 9 12 1009.4 1008.9 2.4
24/02:34pm 21.8 23.3 19.7 88 1.3 NE 11 17 6 9 1009.9 1009.4 2.4
24/02:30pm 21.8 23.3 19.7 88 1.3 NE 11 17 6 9 1010.0 1009.5 2.4
24/02:00pm 21.1 23.5 19.7 92 0.9 NE 6 9 3 5 1010.3 1009.8 2.4
24/01:30pm 20.7 20.5 19.4 92 0.8 NNE 19 28 10 15 1010.8 1010.3 2.2
24/01:00pm 20.5 19.5 18.8 90 1.1 NE 22 33 12 18 1010.5 1010.0 2.0
24/12:30pm 21.5 22.1 18.7 84 1.8 N 13 20 7 11 1012.0 1011.6 1.6
24/12:00pm 21.7 22.9 18.3 81 2.1 N 9 11 5 6 1012.7 1012.3 1.0
24/11:30am 22.9 21.9 17.6 72 3.3 N 19 32 10 17 1013.0 1012.6 0.2
24/11:00am 24.9 25.2 17.1 62 4.9 NNW 11 17 6 9 1012.7 1012.3 0.0
24/10:30am 25.5 23.9 16.4 57 5.6 NNW 20 28 11 15 1012.5 1012.1 0.0
24/10:00am 26.3 23.4 15.0 49 6.9 NNW 24 32 13 17 1012.5 1012.1 0.0
24/09:30am 26.6 25.2 15.6 50 6.7 N 17 22 9 12 1012.7 1012.3 0.0
24/09:00am 25.6 25.1 15.0 52 6.4 N 11 17 6 9 1012.9 1012.5 0.0
24/08:30am 25.6 23.7 15.3 53 6.3 N 19 28 10 15 1012.8 1012.4 0.0
24/08:00am 25.7 24.1 15.1 52 6.4 N 17 26 9 14 1012.7 1012.3 0.0
24/07:30am 22.6 22.6 15.2 63 4.4 SE 9 11 5 6 1012.6 1012.2 0.0
24/07:00am 22.5 21.7 14.1 59 4.9 ESE 11 17 6 9 1012.1 1011.7 0.0
24/06:30am 20.4 20.6 14.3 68 3.6 SE 6 9 3 5 1012.0 1011.6 0.0
24/06:00am 21.1 20.5 14.5 66 3.9 E 11 13 6 7 1011.8 1011.3 0.0
24/05:30am 22.2 21.8 14.1 60 4.8 E 9 13 5 7 1011.5 1011.0 0.0
24/05:00am 22.4 21.9 13.7 58 5.1 NNE 9 13 5 7 1011.1 1010.6 0.0
24/04:30am 21.8 21.9 14.4 63 4.4 ESE 7 11 4 6 1010.7 1010.2 0.0
24/04:00am 22.5 22.1 14.1 59 5.0 NE 9 13 5 7 1011.0 1010.5 0.0
24/03:30am 23.3 21.5 13.2 53 5.9 NNE 15 19 8 10 1011.2 1010.7 0.0
24/03:00am 22.4 21.4 13.5 57 5.2 NE 11 15 6 8 1011.3 1010.8 0.0
24/02:30am 23.5 23.0 13.9 55 5.7 ESE 9 13 5 7 1012.1 1011.7 0.0
24/02:00am 23.7 24.5 14.9 57 5.3 W 4 9 2 5 1012.9 1012.5 0.0
24/01:30am 25.7 24.1 11.5 41 8.1 WSW 11 15 6 8 1013.0 1012.6 0.0
24/01:00am 25.2 23.6 12.8 46 7.2 WSW 13 20 7 11 1013.2 1012.8 0.0
24/12:30am 25.4 24.7 13.3 47 7.1 E 9 13 5 7 1012.6 1012.2 0.0
24/12:00am 25.8 25.1 13.3 46 7.4 SE 9 11 5 6 1012.4 1012.0 0.0
 
Date/Time
EDT
Temp
°C
App
Temp
°C
Dew
Point
Rel
Hum
%
Delta-T
°C
Wind Press
QNH
hPa
Press
MSL
hPa
Rain
since 9 am
mm
Dir
 
Spd
km/h
Gust
km/h
Spd
kts
Gust
kts
23/11:30pm 27.0 26.2 11.1 37 9.1 NW 6 7 3 4 1012.9 1012.5 0.0
23/11:00pm 26.8 25.5 11.3 38 8.9 SSE 9 13 5 7 1012.0 1011.6 0.0
23/10:30pm 27.1 25.9 11.6 38 8.9 W 9 15 5 8 1012.8 1012.4 0.0
23/10:00pm 27.9 26.4 10.6 34 9.8 SW 9 13 5 7 1012.4 1012.0 0.0
23/09:30pm 28.0 25.9 11.1 35 9.7 W 13 17 7 9 1012.6 1012.2 0.0
23/09:00pm 29.0 26.5 11.1 33 10.3 W 15 20 8 11 1012.5 1012.1 0.0
23/08:30pm 29.7 27.0 11.7 33 10.5 W 17 20 9 11 1011.9 1011.5 0.0
23/08:00pm 29.9 28.2 12.3 33 10.4 W 13 17 7 9 1010.7 1010.2 0.0
23/07:30pm 31.1 27.9 12.0 31 11.3 W 20 32 11 17 1010.4 1009.9 0.0
23/07:00pm 32.3 28.2 11.5 28 12.3 W 24 35 13 19 1010.0 1009.5 0.0
23/06:30pm 33.3 28.9 11.8 27 12.8 W 26 39 14 21 1009.8 1009.3 0.0
23/06:00pm 33.3 28.9 11.8 27 12.8 W 26 35 14 19 1009.5 1009.0 0.0
23/05:30pm 33.6 28.6 10.9 25 13.3 WNW 28 39 15 21 1009.5 1009.0 0.0
23/05:00pm 35.1 30.3 10.2 22 14.6 W 26 33 14 18 1008.9 1008.5 0.0
23/04:30pm 35.5 31.1 10.5 22 14.7 W 24 35 13 19 1009.1 1008.7 0.0
23/04:00pm 35.0 30.7 10.8 23 14.3 WNW 24 32 13 17 1009.0 1008.6 0.0
23/03:30pm 35.2 30.2 10.9 23 14.3 W 28 32 15 17 1009.2 1008.8 0.0
23/03:00pm 35.0 30.7 12.0 25 13.8 W 26 35 14 19 1009.1 1008.7 0.0
23/02:30pm 34.1 33.9 14.6 31 12.1 SW 9 19 5 10 1009.4 1008.9 0.0
23/02:00pm 33.3 31.9 14.4 32 11.7 SSW 15 22 8 12 1009.5 1009.0 0.0
23/01:30pm 32.8 32.3 13.9 31 11.6 WNW 9 13 5 7 1009.9 1009.4 0.0
23/01:00pm 32.3 32.6 13.5 32 11.4 N 4 11 2 6 1010.2 1009.7 0.0
23/12:30pm 31.8 31.8 13.5 32 11.1 E 6 13 3 7 1010.4 1009.9 0.0
23/12:00pm 29.7 29.2 15.0 40 9.0 S 11 17 6 9 1010.4 1009.9 0.0
23/11:30am 29.9 29.9 16.3 43 8.5 S 11 19 6 10 1010.8 1010.3 0.0
23/11:00am 28.0 28.4 15.3 46 7.8 S 7 13 4 7 1011.0 1010.5 0.0
23/10:30am 27.1 26.6 14.8 47 7.5 SE 11 15 6 8 1011.3 1010.8 0.0
23/10:00am 26.1 26.4 16.9 57 5.8 SE 11 13 6 7 1011.4 1010.9 0.0
23/09:30am 24.5 25.1 16.7 61 4.8 S 9 15 5 8 1011.7 1011.2 0.0
23/09:00am 23.3 23.6 16.1 64 4.4 S 9 13 5 7 1011.8 1011.3 0.6
23/08:30am 22.7 23.4 16.0 66 4.1 SSE 7 11 4 6 1011.5 1011.0 0.6
23/08:00am 21.7 22.1 16.2 71 3.3 SSE 9 13 5 7 1011.3 1010.8 0.6
23/07:30am 20.2 21.0 15.8 76 2.6 SSE 6 11 3 6 1010.9 1010.4 0.6
23/07:00am 19.2 19.5 15.9 81 2.0 SSE 9 11 5 6 1010.8 1010.3 0.6
23/06:30am 18.2 19.6 15.5 84 1.6 S 2 6 1 3 1010.4 1009.9 0.6
23/06:00am 17.5 18.6 15.5 88 1.2 S 4 7 2 4 1010.0 1009.5 0.6
23/05:30am 17.6 18.2 15.9 90 1.0 SE 7 9 4 5 1009.7 1009.2 0.6
23/05:00am 17.9 18.2 16.1 89 1.1 SE 9 13 5 7 1010.1 1009.6 0.6
23/04:30am 18.8 18.6 16.6 87 1.3 S 13 15 7 8 1010.8 1010.3 0.6
23/04:00am 19.2 17.9 17.3 89 1.2 ENE 20 22 11 12 1010.1 1009.6 0.4
23/03:30am 19.1 19.1 16.3 84 1.7 N 11 13 6 7 1011.1 1010.6 0.0
23/03:00am 20.3 20.8 14.9 71 3.2 SE 6 7 3 4 1010.6 1010.1 0.0
23/02:30am 20.5 20.9 14.8 70 3.4 SE 6 11 3 6 1010.4 1009.9 0.0
23/02:00am 20.1 20.6 15.1 73 3.0 N 6 7 3 4 1010.6 1010.1 0.0
23/01:30am 21.1 21.2 13.8 63 4.2 SSE 6 9 3 5 1010.7 1010.2 0.0
23/01:00am 21.0 20.4 14.6 67 3.8 S 11 17 6 9 1011.2 1010.7 0.0
23/12:30am 23.2 23.3 13.9 56 5.5 ESE 6 9 3 5 1011.6 1011.1 0.0
23/12:00am 22.5 21.8 13.3 56 5.3 S 9 11 5 6 1011.9 1011.5 0.0
 
Date/Time
EDT
Temp
°C
App
Temp
°C
Dew
Point
Rel
Hum
%
Delta-T
°C
Wind Press
QNH
hPa
Press
MSL
hPa
Rain
since 9 am
mm
Dir
 
Spd
km/h
Gust
km/h
Spd
kts
Gust
kts
22/11:30pm 24.4 23.6 13.0 49 6.6 SSW 9 17 5 9 1012.2 1011.8 0.0
22/11:00pm 25.0 23.3 12.6 46 7.2 SSW 13 20 7 11 1012.5 1012.1 0.0
22/10:30pm 25.3 24.8 12.2 44 7.6 W 6 9 3 5 1011.9 1011.5 0.0
22/10:00pm 25.9 25.1 10.9 39 8.5 WSW 6 9 3 5 1011.9 1011.5 0.0
22/09:30pm 26.8 24.0 10.1 35 9.4 WSW 15 19 8 10 1011.8 1011.3 0.0
22/09:00pm 27.3 23.9 9.2 32 10.0 W 17 24 9 13 1011.5 1011.0 0.0
22/08:30pm 28.4 23.3 7.6 27 11.3 WNW 24 33 13 18 1011.1 1010.6 0.0
22/08:00pm 27.5 27.3 8.9 31 10.3 CALM 0 0 0 0 1010.4 1009.9 0.0
22/07:30pm 28.1 26.8 9.9 32 10.2 NNE 7 9 4 5 1009.9 1009.4 0.0
22/07:00pm 29.2 28.1 9.8 30 11.0 NE 6 9 3 5 1009.9 1009.4 0.0
22/06:30pm 29.9 28.2 7.7 25 12.2 E 6 7 3 4 1009.8 1009.3 0.0
22/06:00pm 30.0 28.4 7.8 25 12.2 S 6 7 3 4 1009.5 1009.0 0.0
22/05:30pm 30.9 29.1 5.3 20 13.6 SSW 4 7 2 4 1009.0 1008.6 0.0
22/05:00pm 31.4 27.8 5.0 19 14.0 W 13 20 7 11 1009.4 1008.9 0.0
22/04:30pm 32.2 28.4 5.7 19 14.2 WSW 15 19 8 10 1010.2 1009.7 0.0
22/04:00pm 31.8 26.9 5.3 19 14.1 W 20 28 11 15 1010.0 1009.5 0.0
22/03:30pm 32.4 28.0 6.6 20 14.1 WSW 19 24 10 13 1010.3 1009.8 0.0
22/03:00pm 32.7 29.3 7.5 21 14.0 W 15 32 8 17 1010.6 1010.1 0.0
22/02:30pm 31.3 27.8 7.1 22 13.2 SSW 15 20 8 11 1011.0 1010.5 0.0
22/02:00pm 31.0 28.2 8.7 25 12.5 S 13 20 7 11 1011.5 1011.0 0.0
22/01:30pm 30.0 27.3 9.0 27 11.8 SSW 13 20 7 11 1011.7 1011.2 0.0
22/01:00pm 29.8 27.2 9.3 28 11.5 SSE 13 19 7 10 1011.6 1011.1 0.0
22/12:30pm 28.5 25.6 9.7 31 10.6 S 15 22 8 12 1011.8 1011.3 0.0
22/12:00pm 28.4 26.9 10.6 33 10.2 SSE 9 19 5 10 1012.0 1011.6 0.0
22/11:30am 27.3 25.7 10.1 34 9.7 ESE 9 15 5 8 1012.0 1011.6 0.0
22/11:00am 26.3 25.4 10.5 37 8.9 SE 6 11 3 6 1012.4 1012.0 0.0
22/10:30am 25.2 23.7 10.6 40 8.2 E 9 15 5 8 1012.5 1012.1 0.0
22/10:00am 23.7 23.0 12.0 48 6.7 SE 7 11 4 6 1012.9 1012.5 0.0
22/09:30am 22.1 21.0 11.8 52 5.8 SE 9 13 5 7 1013.1 1012.7 0.0
22/09:00am 20.1 18.9 11.6 58 4.7 ESE 9 11 5 6 1013.4 1013.0 0.0
22/08:30am 18.6 18.8 10.4 59 4.4 CALM 0 6 0 3 1013.4 1013.0 0.0
22/08:00am 16.7 15.8 9.4 62 3.8 S 4 6 2 3 1013.3 1012.9 0.0
22/07:30am 15.8 14.7 10.1 69 3.0 SSE 6 9 3 5 1013.3 1012.9 0.0
22/07:00am 15.0 14.5 9.4 69 2.9 E 2 7 1 4 1013.1 1012.7 0.0

Other Formats:

Comma delimited format used in spreadsheet applications
http://www.bom.gov.au/fwo/IDV60801/IDV60801.95896.axf

JavaScript Object Notation format (JSON) in row-major order
http://www.bom.gov.au/fwo/IDV60801/IDV60801.95896.json